Hlavní strana
METAR-TAF:

METAR-TAF

Letiště :

Ängelholm–Helsingborg

Helsingborg, Švédsko

zeměpisná šířka: 56-17-46N, zeměpisná délka: 012-50-50E, výška: 21 m

Aktuální stav počasí

Zpráva byla vytvořena před 27 minutami, v 09:50 UTC
Jihojihovýchodní vítr 8 kt
Teplota 6°C
Vlhkost vzduchu 87%
Tlak 1017 hPa
Viditelnost: 5000 m
Oblačno až skoro zataženo ve výšce 800 ft
kouřmo

METAR: ESTA 180950Z 16008KT 5000 BR BKN008 06/04 Q1017

Čas: 11:17 (10:17 UTC)

Předpověď počasí

Zpráva byla vytvořena před 2 hodinami a 13 minutami, v 08:04 UTC
Předpověď platná od 18 v 09 UTC do 18 v 18 UTC
Jihovýchodní vítr 8 kt
Viditelnost: 2000 m
Oblačno až skoro zataženo ve výšce 500 ft
kouřmo
Změna
od 18 v 09 UTC do 18 v 11 UTC
Viditelnost: 8000 m
Polojasno ve výšce 500 ft
Dočasný
od 18 v 11 UTC do 18 v 18 UTC
Viditelnost: 4000 m
Oblačno až skoro zataženo ve výšce 400 ft
kouřmo

TAF: ESTA 180804Z 1809/1818 14008KT 2000 BR BKN005 BECMG 1809/1811 8000 NSW SCT005 TEMPO 1811/1818 4000 BR BKN004

Stav a předpovědi počasí z více než 4 000 letišť (zprávy METAR a TAF).

Červené a žluté tečky na mapě představují dostupné meteorologické stanice.

Když kurzor umístíte na tečku, zobrazí se název stanice.

Pak kliknutím zobrazíte stav a předpověď počasí.

Chcete-li změnit mapu, kliknutím na zelené tlačítko se znaménkem +mapu přiblížíte, kliknutím na zelené tlačítko se znaménkem – mapu oddálíte a kliknutím na zelené šipky přejdete na sousední mapy.


METAR-TAF: